Time;durP1;ratioP1;P1;durP2;ratioP2;P2;SDS_P1;SDS_P2;PMS_P1;PMS_P2;Temp;Humidity;BMP_temperature;BMP_pressure;BME280_temperature;BME280_humidity;BME280_pressure;Samples;Min_cycle;Max_cycle;Signal;HPM_P1;HPM_P2
2023/06/17 00:00:38;;;;;;;6.90;5.87;;;;;;;15.10;68.50;100451.69;5093217;28;20224;-69
2023/06/17 00:03:04;;;;;;;8.57;6.03;;;;;;;15.00;69.96;100461.50;5073730;28;20260;-69
2023/06/17 00:05:31;;;;;;;17.40;6.90;;;;;;;14.92;71.82;100449.97;5082788;28;20580;-70
2023/06/17 00:07:57;;;;;;;17.07;6.30;;;;;;;14.99;72.35;100452.63;5085497;28;20704;-69
2023/06/17 00:10:24;;;;;;;12.40;6.87;;;;;;;15.06;70.96;100448.13;5056563;28;20710;-69
2023/06/17 00:12:50;;;;;;;7.07;6.00;;;;;;;15.08;70.24;100445.47;5082964;28;20605;-69
2023/06/17 00:15:16;;;;;;;12.40;6.27;;;;;;;14.94;70.99;100445.53;5092333;28;20227;-69
2023/06/17 00:17:47;;;;;;;10.80;6.50;;;;;;;14.78;72.78;100447.34;5074635;28;20200;-69
2023/06/17 00:20:14;;;;;;;8.33;6.00;;;;;;;14.64;73.09;100435.81;5074261;28;20698;-69
2023/06/17 00:22:46;;;;;;;8.53;6.00;;;;;;;14.59;73.65;100440.28;5074396;28;20201;-69
2023/06/17 00:25:13;;;;;;;10.10;5.83;;;;;;;14.54;74.28;100439.41;5071861;28;20194;-69
2023/06/17 00:27:40;;;;;;;8.53;6.23;;;;;;;14.40;74.81;100434.94;5085461;28;20198;-69
2023/06/17 00:30:07;;;;;;;10.17;6.53;;;;;;;14.29;75.29;100433.19;5086365;28;20222;-69
2023/06/17 00:32:34;;;;;;;10.50;6.33;;;;;;;14.26;76.07;100436.75;5081574;28;20198;-69
2023/06/17 00:35:05;;;;;;;10.63;6.07;;;;;;;14.34;74.96;100434.06;5076890;28;20305;-69
2023/06/17 00:37:32;;;;;;;11.37;6.03;;;;;;;14.39;75.90;100430.50;5072801;28;20760;-69
2023/06/17 00:39:59;;;;;;;9.07;6.00;;;;;;;14.36;76.05;100434.94;5079767;28;20225;-69
2023/06/17 00:42:25;;;;;;;8.93;5.83;;;;;;;14.38;76.30;100442.03;5090562;28;20239;-69
2023/06/17 00:44:52;;;;;;;7.00;5.67;;;;;;;14.29;76.50;100434.06;5073054;28;20225;-69
2023/06/17 00:47:19;;;;;;;9.47;5.87;;;;;;;14.23;77.89;100433.19;5072716;28;20198;-69
2023/06/17 00:49:46;;;;;;;9.53;5.53;;;;;;;14.13;78.65;100439.44;5073304;28;20194;-69
2023/06/17 00:52:14;;;;;;;8.67;5.67;;;;;;;14.03;79.93;100439.44;5058227;28;20198;-69
2023/06/17 00:55:01;;;;;;;8.43;5.97;;;;;;;13.96;81.15;100442.94;5072156;28;20194;-69
2023/06/17 00:57:28;;;;;;;9.00;6.43;;;;;;;13.90;82.29;100442.06;5092349;28;20194;-69
2023/06/17 00:59:55;;;;;;;7.03;5.50;;;;;;;13.85;83.00;100443.84;5078022;28;20241;-69
2023/06/17 01:02:25;;;;;;;9.80;6.40;;;;;;;13.90;82.93;100434.09;5073565;28;20201;-69
2023/06/17 01:04:53;;;;;;;8.40;5.73;;;;;;;13.89;83.20;100434.97;5073208;28;20288;-69
2023/06/17 01:07:35;;;;;;;9.17;6.50;;;;;;;13.85;83.59;100438.53;5075628;28;20681;-69
2023/06/17 01:10:07;;;;;;;9.10;6.30;;;;;;;13.76;84.07;100431.41;5086429;28;20885;-70
2023/06/17 01:12:34;;;;;;;8.13;6.47;;;;;;;13.68;84.56;100435.84;5090001;28;20196;-69
2023/06/17 01:15:01;;;;;;;10.17;5.93;;;;;;;13.54;85.25;100433.13;5084900;28;20680;-70
2023/06/17 01:17:28;;;;;;;8.27;6.30;;;;;;;13.45;86.01;100434.00;5073024;28;20201;-70
2023/06/17 01:19:55;;;;;;;8.43;6.40;;;;;;;13.40;86.80;100429.56;5078756;28;20221;-69
2023/06/17 01:22:23;;;;;;;7.20;6.00;;;;;;;13.38;86.67;100442.88;5082446;28;20201;-70
2023/06/17 01:24:50;;;;;;;7.57;6.30;;;;;;;13.35;87.53;100441.97;5073488;28;20205;-71
2023/06/17 01:27:17;;;;;;;11.10;6.90;;;;;;;13.47;86.91;100431.34;5077252;28;20194;-69
2023/06/17 01:29:48;;;;;;;8.27;6.30;;;;;;;13.73;86.09;100434.06;5071198;28;20205;-70
2023/06/17 01:32:15;;;;;;;8.03;6.33;;;;;;;13.81;85.10;100442.94;5073356;28;20206;-70
2023/06/17 01:35:05;;;;;;;9.23;6.47;;;;;;;13.73;85.79;100440.28;5081649;28;20207;-70
2023/06/17 01:37:48;;;;;;;9.40;6.80;;;;;;;13.86;86.38;100433.19;5073887;28;20190;-71
2023/06/17 01:40:18;;;;;;;10.83;6.77;;;;;;;13.94;86.74;100434.06;5071215;28;20221;-69
2023/06/17 01:42:50;;;;;;;8.03;6.30;;;;;;;13.80;87.72;100431.41;5054954;28;20194;-70
2023/06/17 01:45:18;;;;;;;8.70;6.60;;;;;;;13.72;89.66;100433.19;5076024;28;20216;-69
2023/06/17 01:47:45;;;;;;;9.43;6.97;;;;;;;13.62;90.76;100430.53;5081326;28;20643;-70
2023/06/17 01:50:12;;;;;;;9.33;6.57;;;;;;;13.50;91.71;100428.69;5056186;28;20569;-69
2023/06/17 01:52:38;;;;;;;9.30;6.67;;;;;;;13.41;92.50;100423.38;5073855;28;20204;-71
2023/06/17 01:55:05;;;;;;;10.37;6.77;;;;;;;13.37;92.63;100432.22;5086343;28;20205;-70
2023/06/17 01:57:31;;;;;;;10.53;6.50;;;;;;;13.35;91.77;100434.00;5086117;28;20206;-69
2023/06/17 01:59:57;;;;;;;8.80;6.80;;;;;;;13.41;92.56;100421.59;5072378;28;20240;-70
2023/06/17 02:02:24;;;;;;;9.73;6.13;;;;;;;13.30;92.12;100422.47;5080433;28;20428;-71
2023/06/17 02:04:53;;;;;;;9.03;6.50;;;;;;;13.21;92.37;100428.66;5065857;28;20201;-70
2023/06/17 02:07:25;;;;;;;9.57;6.57;;;;;;;13.12;92.55;100425.91;5075007;28;20274;-70
2023/06/17 02:09:52;;;;;;;11.60;7.20;;;;;;;13.02;92.63;100422.31;5078194;28;20197;-71
2023/06/17 02:12:18;;;;;;;10.47;6.73;;;;;;;12.98;93.68;100420.53;5070906;28;20212;-70
2023/06/17 02:14:45;;;;;;;10.93;6.90;;;;;;;13.14;92.52;100414.38;5080093;28;20823;-71
2023/06/17 02:17:12;;;;;;;8.67;6.87;;;;;;;13.14;92.42;100416.16;5077192;28;20201;-70
2023/06/17 02:19:39;;;;;;;10.00;7.30;;;;;;;13.10;92.32;100412.59;5073029;28;20215;-71
2023/06/17 02:22:06;;;;;;;8.90;6.87;;;;;;;13.15;92.22;100421.47;5073356;28;20266;-71
2023/06/17 02:24:32;;;;;;;10.10;7.40;;;;;;;13.24;91.33;100417.13;5071000;28;20235;-70
2023/06/17 02:26:59;;;;;;;11.53;7.00;;;;;;;13.12;91.36;100413.50;5076955;28;20205;-71
2023/06/17 02:29:25;;;;;;;9.90;7.27;;;;;;;13.08;92.01;100403.72;5087191;28;20205;-71
2023/06/17 02:31:52;;;;;;;11.27;7.43;;;;;;;13.04;93.14;100401.06;5071648;28;20898;-71
2023/06/17 02:34:19;;;;;;;8.20;6.40;;;;;;;12.99;92.69;100403.69;5075070;28;20673;-70
2023/06/17 02:36:46;;;;;;;8.57;6.47;;;;;;;12.86;93.58;100408.09;5078012;28;20196;-71
2023/06/17 02:39:12;;;;;;;8.87;7.23;;;;;;;12.83;93.69;100404.53;5070881;28;20627;-70
2023/06/17 02:41:39;;;;;;;9.93;6.33;;;;;;;12.81;93.87;100404.53;5077029;28;20214;-71
2023/06/17 02:44:05;;;;;;;9.90;6.70;;;;;;;12.92;94.52;100406.34;5090749;28;20203;-71
2023/06/17 02:46:34;;;;;;;9.93;6.60;;;;;;;12.84;95.45;100411.63;5071322;28;20277;-70
2023/06/17 02:49:00;;;;;;;12.93;7.33;;;;;;;12.80;95.94;100402.72;5053240;28;20296;-70
2023/06/17 02:51:27;;;;;;;8.80;6.77;;;;;;;12.74;95.24;100397.38;5073840;28;20296;-72
2023/06/17 02:53:54;;;;;;;10.93;7.53;;;;;;;12.75;95.92;100401.81;5070902;28;20202;-70
2023/06/17 02:56:21;;;;;;;9.77;7.43;;;;;;;12.81;95.98;100411.63;5077985;28;20233;-70
2023/06/17 02:58:47;;;;;;;10.93;7.10;;;;;;;12.68;96.56;100405.34;5083478;28;20196;-71
2023/06/17 03:01:14;;;;;;;11.37;6.70;;;;;;;12.63;97.69;100409.72;5073739;28;20635;-70
2023/06/17 03:03:41;;;;;;;11.37;8.23;;;;;;;12.55;98.12;100404.38;5071126;28;20199;-72
2023/06/17 03:06:09;;;;;;;8.97;7.07;;;;;;;12.55;98.38;100399.06;5070865;28;20206;-69
2023/06/17 03:08:38;;;;;;;9.50;7.57;;;;;;;12.51;99.16;100402.59;5055996;28;20277;-71
2023/06/17 03:11:05;;;;;;;9.63;7.27;;;;;;;12.51;99.08;100405.25;5063420;28;20369;-70
2023/06/17 03:13:31;;;;;;;9.60;7.27;;;;;;;12.53;99.55;100406.16;5079150;28;20257;-70
2023/06/17 03:16:01;;;;;;;11.17;7.50;;;;;;;12.53;99.78;100402.59;5071381;28;20198;-70
2023/06/17 03:18:28;;;;;;;11.87;7.67;;;;;;;12.54;100.00;100401.72;5071146;28;20279;-71
2023/06/17 03:20:54;;;;;;;10.40;7.63;;;;;;;12.58;99.99;100399.97;5070430;28;20235;-70
2023/06/17 03:23:21;;;;;;;11.57;7.47;;;;;;;12.57;99.89;100398.19;5070998;28;20409;-71
2023/06/17 03:25:52;;;;;;;9.23;7.23;;;;;;;12.60;99.53;100408.84;5088022;28;20203;-70
2023/06/17 03:28:18;;;;;;;9.63;7.30;;;;;;;12.70;98.78;100408.00;5076432;28;20199;-71
2023/06/17 03:30:45;;;;;;;10.53;7.13;;;;;;;12.76;98.91;100414.22;5076169;28;20222;-70
2023/06/17 03:33:13;;;;;;;9.53;7.10;;;;;;;12.75;98.20;100403.59;5055562;28;20192;-72
2023/06/17 03:35:39;;;;;;;11.73;7.67;;;;;;;12.80;98.27;100410.69;5077256;28;20226;-71
2023/06/17 03:38:06;;;;;;;11.87;8.57;;;;;;;12.93;97.62;100410.78;5080092;28;20625;-69
2023/06/17 03:40:32;;;;;;;9.83;7.20;;;;;;;12.93;97.00;100411.66;5085887;28;20229;-69
2023/06/17 03:42:59;;;;;;;8.60;7.00;;;;;;;13.01;96.48;100419.66;5073750;28;20203;-71
2023/06/17 03:45:25;;;;;;;11.83;7.33;;;;;;;13.06;96.38;100413.47;5070972;28;20199;-69
2023/06/17 03:47:52;;;;;;;9.93;7.10;;;;;;;13.09;95.74;100413.47;5052121;28;20203;-71
2023/06/17 03:50:18;;;;;;;9.63;7.07;;;;;;;13.25;94.75;100411.81;5081262;28;20224;-71
2023/06/17 03:52:45;;;;;;;11.10;7.40;;;;;;;13.34;94.63;100413.59;5088721;28;20202;-70
2023/06/17 03:55:12;;;;;;;9.77;7.17;;;;;;;13.40;94.45;100410.94;5073295;28;20708;-70
2023/06/17 03:57:40;;;;;;;8.83;7.20;;;;;;;13.55;93.48;100413.63;5073710;28;20210;-72
2023/06/17 04:00:07;;;;;;;10.93;7.67;;;;;;;13.61;93.19;100416.31;5074279;28;20719;-69
2023/06/17 04:02:33;;;;;;;15.90;8.13;;;;;;;13.64;93.21;100413.66;5070276;28;20768;-70
2023/06/17 04:05:04;;;;;;;11.77;6.93;;;;;;;13.72;92.71;100414.56;5078638;28;20209;-71
2023/06/17 04:07:32;;;;;;;9.20;6.87;;;;;;;13.72;92.13;100414.56;5079799;28;20655;-71
2023/06/17 04:09:59;;;;;;;9.17;7.10;;;;;;;13.74;91.69;100425.22;5070238;28;20233;-71
2023/06/17 04:12:35;;;;;;;10.60;7.50;;;;;;;13.82;91.96;100417.22;5071452;28;20200;-71
2023/06/17 04:15:06;;;;;;;8.80;6.60;;;;;;;13.88;91.56;100417.22;5071534;28;20207;-70
2023/06/17 04:17:33;;;;;;;9.17;7.20;;;;;;;13.92;91.31;100408.34;5056063;28;20204;-71
2023/06/17 04:20:12;;;;;;;10.10;7.60;;;;;;;13.99;91.08;100418.09;5061435;28;20324;-70
2023/06/17 04:22:39;;;;;;;9.77;7.40;;;;;;;14.05;90.71;100412.81;5069719;28;20217;-71
2023/06/17 04:25:07;;;;;;;9.33;7.40;;;;;;;14.09;90.19;100410.13;5069701;28;20591;-71
2023/06/17 04:27:33;;;;;;;8.97;7.10;;;;;;;14.16;89.94;100416.34;5076725;28;20208;-69
2023/06/17 04:30:01;;;;;;;10.13;7.30;;;;;;;14.23;90.10;100419.88;5070241;28;20607;-70
2023/06/17 04:32:28;;;;;;;9.50;7.77;;;;;;;14.33;89.13;100417.19;5070187;28;20207;-70
2023/06/17 04:34:56;;;;;;;11.43;7.43;;;;;;;14.46;89.28;100414.56;5083763;28;20208;-72
2023/06/17 04:37:22;;;;;;;9.63;7.23;;;;;;;14.59;88.55;100416.31;5075018;28;20676;-70
2023/06/17 04:39:48;;;;;;;14.63;8.10;;;;;;;14.64;88.24;100412.72;5073478;28;20285;-70
2023/06/17 04:42:16;;;;;;;11.20;7.77;;;;;;;14.67;88.44;100409.16;5073669;28;20217;-70
2023/06/17 04:44:43;;;;;;;12.37;7.50;;;;;;;14.71;88.55;100403.81;5073163;28;20194;-71
2023/06/17 04:47:11;;;;;;;10.70;7.43;;;;;;;14.91;88.17;100403.75;5075583;28;20205;-70
2023/06/17 04:49:41;;;;;;;11.37;7.80;;;;;;;15.02;88.15;100406.38;5084775;28;20197;-70
2023/06/17 04:52:11;;;;;;;12.23;7.50;;;;;;;15.12;88.17;100409.88;5090490;28;20500;-70
2023/06/17 04:54:38;;;;;;;11.30;7.43;;;;;;;15.16;88.81;100411.63;5072651;28;20690;-70
2023/06/17 04:57:05;;;;;;;13.10;7.47;;;;;;;15.20;88.19;100416.94;5056667;28;20198;-70
2023/06/17 04:59:31;;;;;;;11.03;7.80;;;;;;;15.33;88.14;100409.78;5073331;28;20194;-70
2023/06/17 05:01:58;;;;;;;12.30;7.80;;;;;;;15.32;88.35;100408.91;5084771;28;20225;-70
2023/06/17 05:04:24;;;;;;;9.10;7.37;;;;;;;15.41;88.25;100417.72;5088083;28;20288;-70
2023/06/17 05:06:51;;;;;;;11.17;8.00;;;;;;;15.46;87.56;100408.81;5073464;28;20621;-70
2023/06/17 05:09:18;;;;;;;12.90;7.77;;;;;;;15.57;87.04;100414.06;5055623;28;20202;-70
2023/06/17 05:11:45;;;;;;;9.70;7.47;;;;;;;15.68;86.75;100417.59;5073023;28;20217;-70
2023/06/17 05:14:11;;;;;;;11.30;7.70;;;;;;;15.85;86.65;100409.47;5072897;28;20198;-70
2023/06/17 05:16:37;;;;;;;9.33;7.27;;;;;;;15.97;85.96;100404.00;5083233;28;20217;-70
2023/06/17 05:19:04;;;;;;;9.30;7.30;;;;;;;16.04;85.19;100410.22;5057770;28;20285;-70
2023/06/17 05:21:30;;;;;;;13.30;7.63;;;;;;;16.10;84.95;100416.38;5097294;22;20236;-70
2023/06/17 05:23:57;;;;;;;12.87;7.67;;;;;;;16.16;85.65;100418.09;5091598;28;20335;-67
2023/06/17 05:26:23;;;;;;;11.67;7.37;;;;;;;16.29;84.44;100420.66;5090781;28;20571;-68
2023/06/17 05:28:49;;;;;;;10.53;8.13;;;;;;;16.47;84.55;100413.38;5087856;28;20205;-68
2023/06/17 05:31:16;;;;;;;10.87;8.30;;;;;;;16.98;83.60;100413.72;5079752;28;20210;-69
2023/06/17 05:33:42;;;;;;;9.77;7.50;;;;;;;18.04;78.49;100414.00;5075965;28;20614;-68
2023/06/17 05:36:09;;;;;;;9.70;8.10;;;;;;;17.93;78.43;100411.47;5086238;28;20202;-68
2023/06/17 05:38:35;;;;;;;10.33;7.80;;;;;;;17.69;80.25;100419.91;5073524;28;20234;-68
2023/06/17 05:41:02;;;;;;;11.70;7.53;;;;;;;17.40;78.25;100417.59;5072466;28;20222;-68
2023/06/17 05:43:28;;;;;;;10.53;6.77;;;;;;;17.31;78.90;100417.75;5073034;28;20194;-69
2023/06/17 05:45:55;;;;;;;10.70;8.10;;;;;;;17.25;79.40;100425.88;5071965;28;20204;-68
2023/06/17 05:48:21;;;;;;;9.93;7.90;;;;;;;17.12;79.24;100431.34;5078129;28;20280;-68
2023/06/17 05:50:51;;;;;;;9.73;7.87;;;;;;;17.30;78.63;100429.34;5089559;28;20699;-68
2023/06/17 05:53:18;;;;;;;11.23;7.70;;;;;;;17.29;78.71;100430.25;5082167;28;20198;-68
2023/06/17 05:55:44;;;;;;;11.07;8.77;;;;;;;17.50;80.13;100433.53;5077024;28;20193;-68
2023/06/17 05:58:10;;;;;;;11.67;8.07;;;;;;;17.83;78.76;100428.59;5087518;28;20208;-68
2023/06/17 06:00:37;;;;;;;11.30;8.40;;;;;;;17.86;78.73;100431.25;5071997;28;20685;-68
2023/06/17 06:03:03;;;;;;;10.03;8.43;;;;;;;17.85;78.54;100432.16;5086331;28;20300;-68
2023/06/17 06:05:31;;;;;;;12.17;7.97;;;;;;;17.87;78.59;100430.31;5082777;28;20229;-68
2023/06/17 06:07:57;;;;;;;11.03;8.90;;;;;;;17.92;79.09;100435.59;5086496;28;20416;-68
2023/06/17 06:10:27;;;;;;;12.17;8.63;;;;;;;17.94;79.10;100432.00;5071870;28;20662;-68
2023/06/17 06:12:53;;;;;;;11.10;9.30;;;;;;;17.98;79.20;100436.38;5072053;28;20196;-68
2023/06/17 06:15:20;;;;;;;12.17;9.20;;;;;;;18.05;79.04;100435.41;5076795;28;20194;-68
2023/06/17 06:17:46;;;;;;;12.57;9.17;;;;;;;18.10;77.96;100438.00;5082294;28;20688;-67
2023/06/17 06:20:15;;;;;;;14.17;9.20;;;;;;;18.28;77.14;100442.16;5071352;28;20278;-67
2023/06/17 06:22:42;;;;;;;11.87;8.90;;;;;;;18.59;74.93;100447.88;5063869;28;20731;-68
2023/06/17 06:25:09;;;;;;;14.67;8.70;;;;;;;18.71;74.40;100444.97;5080025;28;20198;-67
2023/06/17 06:27:36;;;;;;;14.10;8.30;;;;;;;18.92;73.04;100452.63;5057470;28;20194;-68
2023/06/17 06:30:05;;;;;;;14.43;8.40;;;;;;;18.99;71.90;100446.22;5071965;28;20293;-67
2023/06/17 06:32:31;;;;;;;23.90;10.20;;;;;;;19.03;71.70;100447.94;5078079;28;20194;-68
2023/06/17 06:34:58;;;;;;;15.37;8.30;;;;;;;19.15;71.50;100448.59;5075959;28;20202;-68
2023/06/17 06:37:24;;;;;;;12.03;9.00;;;;;;;19.21;71.16;100453.81;5074738;28;20285;-69
2023/06/17 06:39:50;;;;;;;11.80;8.80;;;;;;;19.35;70.11;100458.00;5071996;28;20197;-68
2023/06/17 06:42:17;;;;;;;13.10;8.67;;;;;;;19.40;70.14;100455.22;5078576;28;20601;-67
2023/06/17 06:44:43;;;;;;;12.63;8.93;;;;;;;19.48;70.11;100447.00;5077499;28;20205;-67
2023/06/17 06:47:10;;;;;;;10.97;8.53;;;;;;;19.54;68.99;100460.31;5073451;28;20200;-67
2023/06/17 06:49:36;;;;;;;9.20;7.53;;;;;;;19.64;68.81;100449.34;5075555;28;20198;-68
2023/06/17 06:52:03;;;;;;;10.73;7.80;;;;;;;19.78;67.72;100458.88;5076252;28;20601;-68
2023/06/17 06:54:30;;;;;;;14.30;8.00;;;;;;;19.87;65.90;100456.88;5073264;28;20201;-68
2023/06/17 06:56:56;;;;;;;12.83;7.70;;;;;;;20.01;65.04;100456.53;5073710;28;20193;-68
2023/06/17 06:59:23;;;;;;;13.55;7.68;;;;;;;20.21;63.47;100453.38;5072293;28;20222;-69
2023/06/17 07:01:49;;;;;;;10.53;7.80;;;;;;;20.37;62.30;100457.41;5072655;28;20237;-68
2023/06/17 07:04:16;;;;;;;11.07;6.67;;;;;;;20.52;62.22;100458.88;5073793;28;20198;-70
2023/06/17 07:06:43;;;;;;;9.45;7.20;;;;;;;20.84;61.27;100455.34;5071490;28;20225;-69
2023/06/17 07:09:09;;;;;;;9.48;6.82;;;;;;;21.92;57.41;100456.59;5075204;28;20202;-70
2023/06/17 07:11:36;;;;;;;9.30;6.65;;;;;;;24.35;47.36;100457.56;5070702;28;20296;-71
2023/06/17 07:14:02;;;;;;;12.52;8.02;;;;;;;26.53;40.31;100458.28;5080485;28;20201;-69
2023/06/17 07:16:28;;;;;;;10.32;7.30;;;;;;;28.21;36.34;100458.13;5076683;28;20220;-71
2023/06/17 07:18:55;;;;;;;19.13;7.95;;;;;;;29.83;32.96;100457.22;5057661;28;20194;-69
2023/06/17 07:21:21;;;;;;;12.50;7.80;;;;;;;30.29;31.30;100461.53;5074915;28;20229;-70
2023/06/17 07:23:48;;;;;;;11.65;7.60;;;;;;;31.41;29.54;100466.50;5074598;28;20194;-71
2023/06/17 07:26:14;;;;;;;14.70;7.03;;;;;;;31.92;28.70;100470.06;5074209;28;20212;-70
2023/06/17 07:28:41;;;;;;;11.70;7.15;;;;;;;31.85;28.29;100471.50;5079803;28;20212;-70
2023/06/17 07:31:08;;;;;;;9.95;6.57;;;;;;;31.88;27.64;100465.78;5067528;28;20249;-70
2023/06/17 07:33:34;;;;;;;7.93;6.53;;;;;;;31.85;27.81;100462.41;5071821;28;20693;-70
2023/06/17 07:36:00;;;;;;;8.60;6.20;;;;;;;31.75;28.50;100454.00;5076650;28;20201;-70
2023/06/17 07:38:27;;;;;;;8.23;6.65;;;;;;;31.18;29.32;100457.19;5078235;28;20724;-70
2023/06/17 07:40:53;;;;;;;9.73;6.13;;;;;;;32.02;27.24;100457.44;5077599;28;20225;-70
2023/06/17 07:43:20;;;;;;;7.03;6.30;;;;;;;32.47;26.26;100452.22;5061772;28;20214;-70
2023/06/17 07:45:46;;;;;;;13.70;6.40;;;;;;;32.43;26.57;100453.47;5069810;28;20204;-71
2023/06/17 07:48:13;;;;;;;8.00;6.07;;;;;;;32.47;26.83;100449.50;5076020;28;20673;-70
2023/06/17 07:50:40;;;;;;;9.75;5.90;;;;;;;32.60;26.14;100450.28;5073224;28;20217;-70
2023/06/17 07:53:06;;;;;;;9.43;6.30;;;;;;;32.53;26.41;100449.00;5076244;28;20206;-70
2023/06/17 07:55:33;;;;;;;7.90;6.15;;;;;;;31.85;26.51;100449.59;5071058;28;20565;-70
2023/06/17 07:58:00;;;;;;;8.43;6.15;;;;;;;32.12;25.96;100438.44;5055299;28;20285;-70
2023/06/17 08:00:26;;;;;;;8.45;6.10;;;;;;;31.96;26.68;100451.50;5071192;28;20218;-70
2023/06/17 08:02:54;;;;;;;7.13;5.90;;;;;;;32.79;26.00;100447.00;5076664;28;20222;-70
2023/06/17 08:05:21;;;;;;;8.68;6.40;;;;;;;32.79;26.19;100449.75;5073238;28;20204;-70
2023/06/17 08:07:47;;;;;;;8.45;6.18;;;;;;;32.74;25.90;100440.97;5077233;28;20225;-70
2023/06/17 08:10:14;;;;;;;9.07;5.95;;;;;;;31.32;27.89;100446.13;5085552;28;20705;-70
2023/06/17 08:12:40;;;;;;;8.07;6.25;;;;;;;31.05;29.39;100446.19;5089477;28;20189;-69
2023/06/17 08:15:08;;;;;;;9.23;5.88;;;;;;;31.42;28.56;100443.59;5076578;28;20202;-70
2023/06/17 08:17:35;;;;;;;8.27;6.43;;;;;;;31.13;28.91;100437.44;5081752;28;20496;-70
2023/06/17 08:20:01;;;;;;;7.28;5.90;;;;;;;31.01;29.07;100441.06;5076658;28;20726;-70
2023/06/17 08:22:28;;;;;;;6.80;6.10;;;;;;;30.61;29.89;100438.38;5084302;28;20217;-69
2023/06/17 08:24:56;;;;;;;9.25;6.50;;;;;;;29.97;31.14;100429.00;5077208;28;20297;-70
2023/06/17 08:27:24;;;;;;;10.60;6.57;;;;;;;29.61;31.87;100424.97;5075539;28;20281;-71
2023/06/17 08:29:51;;;;;;;9.32;6.32;;;;;;;29.49;32.10;100423.03;5077111;28;20236;-70
2023/06/17 08:32:17;;;;;;;6.90;6.07;;;;;;;29.62;32.22;100417.69;5086361;28;20213;-70
2023/06/17 08:34:43;;;;;;;7.93;6.30;;;;;;;29.21;33.03;100421.16;5089565;28;20194;-71
2023/06/17 08:37:10;;;;;;;9.77;6.47;;;;;;;28.97;33.37;100414.53;5089681;28;20748;-70
2023/06/17 08:39:39;;;;;;;7.05;5.90;;;;;;;28.88;33.96;100416.00;5075521;28;20557;-70
2023/06/17 08:42:07;;;;;;;11.70;6.25;;;;;;;28.58;34.47;100415.97;5078837;28;20244;-71
2023/06/17 08:44:38;;;;;;;9.43;5.88;;;;;;;28.35;34.04;100408.31;5081646;28;20202;-71
2023/06/17 08:47:06;;;;;;;9.90;6.65;;;;;;;28.19;34.80;100411.03;5087681;28;20685;-72
2023/06/17 08:49:33;;;;;;;9.85;6.57;;;;;;;28.19;35.28;100404.72;5085069;28;20374;-71
2023/06/17 08:52:00;;;;;;;7.70;6.38;;;;;;;28.22;34.51;100402.69;5085388;28;20294;-71
2023/06/17 08:54:30;;;;;;;7.78;6.13;;;;;;;28.27;34.32;100405.16;5084467;28;20216;-71
2023/06/17 08:56:56;;;;;;;8.80;6.30;;;;;;;28.36;34.97;100402.75;5071126;28;20690;-68
2023/06/17 08:59:23;;;;;;;10.95;6.30;;;;;;;28.43;33.13;100402.41;5078406;28;20606;-68
2023/06/17 09:01:51;;;;;;;7.82;6.13;;;;;;;28.43;32.33;100400.56;5086641;28;20604;-68
2023/06/17 09:04:20;;;;;;;6.55;5.85;;;;;;;28.49;33.84;100397.47;5080442;28;20205;-67
2023/06/17 09:06:47;;;;;;;11.68;6.25;;;;;;;28.52;32.26;100397.28;5085621;28;20201;-69
2023/06/17 09:09:13;;;;;;;10.43;6.50;;;;;;;28.44;31.22;100393.28;5084135;28;20221;-65
2023/06/17 09:11:44;;;;;;;7.07;5.90;;;;;;;28.31;31.04;100399.44;5085445;28;20218;-65
2023/06/17 09:14:10;;;;;;;8.45;5.70;;;;;;;27.80;30.99;100388.88;5075715;28;20198;-64
2023/06/17 09:16:37;;;;;;;6.93;5.72;;;;;;;27.43;30.29;100391.81;5092180;28;20292;-65
2023/06/17 09:19:05;;;;;;;7.90;5.82;;;;;;;27.67;30.85;100381.41;5088409;28;20236;-64
2023/06/17 09:21:35;;;;;;;6.80;5.30;;;;;;;28.06;30.69;100385.50;5089658;28;20304;-65
2023/06/17 09:24:04;;;;;;;8.35;5.47;;;;;;;28.44;28.53;100383.25;5087059;28;20222;-65
2023/06/17 09:26:38;;;;;;;8.63;5.72;;;;;;;28.62;28.53;100376.66;5085788;28;20251;-65
2023/06/17 09:29:12;;;;;;;9.10;6.10;;;;;;;28.93;28.56;100377.53;5085354;28;20576;-64
2023/06/17 09:31:50;;;;;;;7.60;5.75;;;;;;;29.26;27.96;100371.78;5082921;28;20209;-65
2023/06/17 09:34:17;;;;;;;9.10;5.95;;;;;;;28.94;27.51;100371.09;5091135;28;20204;-64
2023/06/17 09:36:44;;;;;;;7.75;5.55;;;;;;;29.09;26.74;100358.31;5082195;28;20201;-65
2023/06/17 09:39:12;;;;;;;6.22;5.43;;;;;;;29.25;26.77;100361.84;5076540;28;20293;-65
2023/06/17 09:41:40;;;;;;;8.80;7.40;;;;;;;29.54;25.89;100355.38;5083848;28;20259;-66
2023/06/17 09:44:07;;;;;;;7.70;6.13;;;;;;;29.61;26.44;100356.72;5091296;28;20773;-64
2023/06/17 09:46:39;;;;;;;9.43;6.55;;;;;;;29.77;25.31;100353.00;5082380;28;20206;-65
2023/06/17 09:49:09;;;;;;;6.20;5.60;;;;;;;29.72;24.92;100356.03;5088098;28;20271;-65
2023/06/17 09:51:38;;;;;;;8.57;5.70;;;;;;;29.87;25.82;100351.38;5086482;28;20222;-65
2023/06/17 09:54:06;;;;;;;7.50;5.60;;;;;;;29.96;24.93;100348.03;5083379;28;20280;-65
2023/06/17 09:56:34;;;;;;;7.80;6.15;;;;;;;30.16;25.11;100350.34;5089122;28;20208;-65
2023/06/17 09:59:03;;;;;;;7.05;6.22;;;;;;;30.29;24.83;100342.16;5087288;28;20201;-65
2023/06/17 10:01:30;;;;;;;10.45;6.40;;;;;;;30.34;24.52;100344.56;5084534;28;20597;-65
2023/06/17 10:03:58;;;;;;;7.50;5.35;;;;;;;29.94;23.93;100337.22;5086701;28;20312;-64
2023/06/17 10:06:31;;;;;;;8.05;5.50;;;;;;;29.55;24.48;100342.59;5084663;28;20234;-65
2023/06/17 10:08:58;;;;;;;8.30;5.50;;;;;;;29.36;24.63;100347.50;5083853;28;20654;-64
2023/06/17 10:11:25;;;;;;;7.78;6.07;;;;;;;29.40;25.13;100333.56;5084087;28;20245;-65
2023/06/17 10:14:06;;;;;;;6.45;5.38;;;;;;;29.62;24.67;100331.22;5088151;28;20234;-65
2023/06/17 10:16:36;;;;;;;7.82;5.53;;;;;;;29.79;25.04;100332.81;5088625;28;20212;-65
2023/06/17 10:19:05;;;;;;;8.35;5.72;;;;;;;30.10;23.33;100328.91;5084983;28;20559;-65
2023/06/17 10:21:35;;;;;;;7.15;5.57;;;;;;;30.17;24.31;100337.56;5084589;28;20221;-65
2023/06/17 10:24:03;;;;;;;7.72;5.38;;;;;;;30.58;23.41;100336.53;5081937;28;20228;-65
2023/06/17 10:26:31;;;;;;;8.70;5.50;;;;;;;30.48;23.41;100334.44;5090242;28;20233;-65
2023/06/17 10:29:01;;;;;;;6.63;5.20;;;;;;;30.45;22.43;100331.94;5083727;28;20202;-64
2023/06/17 10:31:29;;;;;;;6.10;5.50;;;;;;;30.59;23.21;100341.00;5082923;28;20304;-65
2023/06/17 10:34:01;;;;;;;6.60;5.65;;;;;;;31.18;22.72;100339.50;5085566;28;20216;-64
2023/06/17 10:36:27;;;;;;;10.82;5.68;;;;;;;31.55;22.12;100323.09;5088075;28;20201;-64
2023/06/17 10:39:03;;;;;;;7.57;6.70;;;;;;;31.66;21.79;100335.03;5089890;28;20280;-64
2023/06/17 10:41:38;;;;;;;6.15;5.53;;;;;;;32.07;21.79;100329.16;5079783;28;20639;-64
2023/06/17 10:44:23;;;;;;;6.80;5.13;;;;;;;32.30;21.54;100332.00;5085984;28;20646;-64
2023/06/17 10:46:50;;;;;;;7.10;5.50;;;;;;;32.46;21.75;100329.84;5086759;28;20289;-64
2023/06/17 10:49:17;;;;;;;16.73;10.15;;;;;;;32.71;21.19;100326.88;5089363;28;20549;-64
2023/06/17 10:51:51;;;;;;;6.10;5.20;;;;;;;31.64;20.82;100320.56;5075244;28;20227;-64
2023/06/17 10:54:31;;;;;;;6.65;4.97;;;;;;;31.94;20.89;100322.84;5084377;28;20208;-64
2023/06/17 10:57:01;;;;;;;7.50;5.88;;;;;;;31.60;20.31;100312.69;5083461;28;20288;-64
2023/06/17 10:59:30;;;;;;;6.85;5.50;;;;;;;31.15;20.91;100323.28;5089477;28;20201;-64
2023/06/17 11:02:02;;;;;;;7.10;5.00;;;;;;;30.74;21.51;100323.53;5079649;28;20414;-64
2023/06/17 11:04:32;;;;;;;6.95;5.47;;;;;;;30.36;21.83;100316.16;5089150;28;20212;-65
2023/06/17 11:07:00;;;;;;;6.68;5.32;;;;;;;29.42;22.46;100314.34;5089988;28;20193;-64
2023/06/17 11:09:28;;;;;;;6.72;5.65;;;;;;;29.27;24.00;100308.94;5085694;28;20202;-64
2023/06/17 11:11:55;;;;;;;8.57;6.32;;;;;;;29.84;23.34;100318.84;5086551;28;20217;-64
2023/06/17 11:14:27;;;;;;;24.13;18.05;;;;;;;30.58;23.37;100309.19;5088747;28;20673;-64
2023/06/17 11:16:53;;;;;;;11.13;5.35;;;;;;;31.18;21.29;100310.28;5086055;28;20197;-64
2023/06/17 11:19:20;;;;;;;5.18;4.60;;;;;;;30.99;20.38;100303.50;5084104;28;20194;-64
2023/06/17 11:21:50;;;;;;;7.75;5.03;;;;;;;31.24;20.73;100310.84;5087450;28;20602;-66
2023/06/17 11:24:17;;;;;;;6.57;4.70;;;;;;;31.49;20.74;100306.16;5084386;28;20220;-65